Askern, United Kingdom
Current Conditions -  °F | °C
As of 3:50 AM on Thursday 18 Dec 2014 (Local Time) from EGCN Reporting Station
Scattered Clouds Scattered Clouds  
Wind Chill: 52°   Ceiling: Unl
Heat Index: 52°   Visibility: 6mi
Dew Point: 50°   Wind: 15mph
Humidity: 94%   Direction: 210°SSW
Pressure: 29.65"   Gusts: NA
Location:  53.62°N, 1.15°W
Report Text: EGCN 180350Z 21013KT 9999 FEW033 SCT041 11/10 Q1004
Loading
Personal Weather Stations






























Interactive Weather Map New forecast layout! Learn more

10-Day Weather Forecast

Advertisements
Track Severe Weather on mobile